sensor_id;sensor_type;location;lat;lon;timestamp;P1;durP1;ratioP1;P2;durP2;ratioP2
669;SDS011;317;48.758;9.302;2022-08-20T00:01:04;7.37;;;6.77;;
669;SDS011;317;48.758;9.302;2022-08-20T00:03:32;9.07;;;8.47;;
669;SDS011;317;48.758;9.302;2022-08-20T00:06:01;6.80;;;6.10;;
669;SDS011;317;48.758;9.302;2022-08-20T00:08:31;6.07;;;5.57;;
669;SDS011;317;48.758;9.302;2022-08-20T00:10:59;7.80;;;4.80;;
669;SDS011;317;48.758;9.302;2022-08-20T00:13:28;5.40;;;4.90;;
669;SDS011;317;48.758;9.302;2022-08-20T00:15:56;6.33;;;5.70;;
669;SDS011;317;48.758;9.302;2022-08-20T00:18:24;8.73;;;4.30;;
669;SDS011;317;48.758;9.302;2022-08-20T00:20:52;6.43;;;5.93;;
669;SDS011;317;48.758;9.302;2022-08-20T00:23:21;7.00;;;6.60;;
669;SDS011;317;48.758;9.302;2022-08-20T00:25:55;6.83;;;6.43;;
669;SDS011;317;48.758;9.302;2022-08-20T00:28:22;5.90;;;5.30;;
669;SDS011;317;48.758;9.302;2022-08-20T00:30:49;5.33;;;5.03;;
669;SDS011;317;48.758;9.302;2022-08-20T00:33:17;4.50;;;4.20;;
669;SDS011;317;48.758;9.302;2022-08-20T00:35:46;5.00;;;3.00;;
669;SDS011;317;48.758;9.302;2022-08-20T00:38:15;3.53;;;3.23;;
669;SDS011;317;48.758;9.302;2022-08-20T00:40:47;3.90;;;3.60;;
669;SDS011;317;48.758;9.302;2022-08-20T00:43:28;4.67;;;4.27;;
669;SDS011;317;48.758;9.302;2022-08-20T00:46:01;4.47;;;4.10;;
669;SDS011;317;48.758;9.302;2022-08-20T00:48:30;4.27;;;3.97;;
669;SDS011;317;48.758;9.302;2022-08-20T00:51:01;4.47;;;4.07;;
669;SDS011;317;48.758;9.302;2022-08-20T00:53:30;4.97;;;4.30;;
669;SDS011;317;48.758;9.302;2022-08-20T00:55:59;4.80;;;2.83;;
669;SDS011;317;48.758;9.302;2022-08-20T00:58:33;3.97;;;2.53;;
669;SDS011;317;48.758;9.302;2022-08-20T01:01:02;3.23;;;2.67;;
669;SDS011;317;48.758;9.302;2022-08-20T01:03:30;3.70;;;3.33;;
669;SDS011;317;48.758;9.302;2022-08-20T01:05:58;4.67;;;4.23;;
669;SDS011;317;48.758;9.302;2022-08-20T01:08:26;4.70;;;4.40;;
669;SDS011;317;48.758;9.302;2022-08-20T01:10:53;3.70;;;3.40;;
669;SDS011;317;48.758;9.302;2022-08-20T01:13:32;4.40;;;3.90;;
669;SDS011;317;48.758;9.302;2022-08-20T01:16:02;4.63;;;4.20;;
669;SDS011;317;48.758;9.302;2022-08-20T01:18:34;3.90;;;3.57;;
669;SDS011;317;48.758;9.302;2022-08-20T01:21:03;4.80;;;4.40;;
669;SDS011;317;48.758;9.302;2022-08-20T01:23:35;3.43;;;3.20;;
669;SDS011;317;48.758;9.302;2022-08-20T01:26:13;3.90;;;3.60;;
669;SDS011;317;48.758;9.302;2022-08-20T01:28:43;3.73;;;3.43;;
669;SDS011;317;48.758;9.302;2022-08-20T01:31:14;2.60;;;2.37;;
669;SDS011;317;48.758;9.302;2022-08-20T01:33:42;8.20;;;3.87;;
669;SDS011;317;48.758;9.302;2022-08-20T01:36:10;4.10;;;3.80;;
669;SDS011;317;48.758;9.302;2022-08-20T01:38:39;5.20;;;4.50;;
669;SDS011;317;48.758;9.302;2022-08-20T01:41:18;8.43;;;4.10;;
669;SDS011;317;48.758;9.302;2022-08-20T01:43:51;4.83;;;3.20;;
669;SDS011;317;48.758;9.302;2022-08-20T01:46:21;4.70;;;2.80;;
669;SDS011;317;48.758;9.302;2022-08-20T01:48:50;3.80;;;3.50;;
669;SDS011;317;48.758;9.302;2022-08-20T01:51:20;4.70;;;4.30;;
669;SDS011;317;48.758;9.302;2022-08-20T01:53:51;3.90;;;3.60;;
669;SDS011;317;48.758;9.302;2022-08-20T01:56:22;3.67;;;3.37;;
669;SDS011;317;48.758;9.302;2022-08-20T01:58:51;5.27;;;4.77;;
669;SDS011;317;48.758;9.302;2022-08-20T02:01:22;4.53;;;4.23;;
669;SDS011;317;48.758;9.302;2022-08-20T02:03:50;3.10;;;2.90;;
669;SDS011;317;48.758;9.302;2022-08-20T02:06:18;5.13;;;4.83;;
669;SDS011;317;48.758;9.302;2022-08-20T02:08:50;4.50;;;4.10;;
669;SDS011;317;48.758;9.302;2022-08-20T02:11:26;4.13;;;3.73;;
669;SDS011;317;48.758;9.302;2022-08-20T02:13:54;5.63;;;5.23;;
669;SDS011;317;48.758;9.302;2022-08-20T02:16:23;4.53;;;3.57;;
669;SDS011;317;48.758;9.302;2022-08-20T02:18:55;3.10;;;2.90;;
669;SDS011;317;48.758;9.302;2022-08-20T02:21:26;3.93;;;3.70;;
669;SDS011;317;48.758;9.302;2022-08-20T02:23:56;6.83;;;4.30;;
669;SDS011;317;48.758;9.302;2022-08-20T02:26:31;4.47;;;4.10;;
669;SDS011;317;48.758;9.302;2022-08-20T02:29:02;4.20;;;3.90;;
669;SDS011;317;48.758;9.302;2022-08-20T02:31:30;4.73;;;4.33;;
669;SDS011;317;48.758;9.302;2022-08-20T02:33:57;4.00;;;3.00;;
669;SDS011;317;48.758;9.302;2022-08-20T02:36:25;4.57;;;4.17;;
669;SDS011;317;48.758;9.302;2022-08-20T02:38:52;3.90;;;3.33;;
669;SDS011;317;48.758;9.302;2022-08-20T02:41:19;3.47;;;3.17;;
669;SDS011;317;48.758;9.302;2022-08-20T02:43:48;4.00;;;3.70;;
669;SDS011;317;48.758;9.302;2022-08-20T02:46:27;4.20;;;3.87;;
669;SDS011;317;48.758;9.302;2022-08-20T02:48:54;4.20;;;3.80;;
669;SDS011;317;48.758;9.302;2022-08-20T02:51:21;4.30;;;4.00;;
669;SDS011;317;48.758;9.302;2022-08-20T02:53:50;7.60;;;3.30;;
669;SDS011;317;48.758;9.302;2022-08-20T02:56:18;3.97;;;3.67;;
669;SDS011;317;48.758;9.302;2022-08-20T02:58:45;2.47;;;2.37;;
669;SDS011;317;48.758;9.302;2022-08-20T03:01:14;5.77;;;5.00;;
669;SDS011;317;48.758;9.302;2022-08-20T03:03:43;3.70;;;3.47;;
669;SDS011;317;48.758;9.302;2022-08-20T03:06:10;4.27;;;3.97;;
669;SDS011;317;48.758;9.302;2022-08-20T03:08:38;4.57;;;4.27;;
669;SDS011;317;48.758;9.302;2022-08-20T03:11:05;5.10;;;4.70;;
669;SDS011;317;48.758;9.302;2022-08-20T03:13:32;4.87;;;4.57;;
669;SDS011;317;48.758;9.302;2022-08-20T03:16:02;4.60;;;4.30;;
669;SDS011;317;48.758;9.302;2022-08-20T03:18:35;5.37;;;4.00;;
669;SDS011;317;48.758;9.302;2022-08-20T03:21:04;3.93;;;3.63;;
669;SDS011;317;48.758;9.302;2022-08-20T03:23:32;4.07;;;3.70;;
669;SDS011;317;48.758;9.302;2022-08-20T03:26:09;3.63;;;3.43;;
669;SDS011;317;48.758;9.302;2022-08-20T03:28:37;3.43;;;3.23;;
669;SDS011;317;48.758;9.302;2022-08-20T03:31:05;4.00;;;3.70;;
669;SDS011;317;48.758;9.302;2022-08-20T03:33:33;2.83;;;2.63;;
669;SDS011;317;48.758;9.302;2022-08-20T03:36:00;3.90;;;3.60;;
669;SDS011;317;48.758;9.302;2022-08-20T03:38:28;3.13;;;2.93;;
669;SDS011;317;48.758;9.302;2022-08-20T03:40:55;3.30;;;3.00;;
669;SDS011;317;48.758;9.302;2022-08-20T03:43:22;4.23;;;3.93;;
669;SDS011;317;48.758;9.302;2022-08-20T03:45:49;3.20;;;3.00;;
669;SDS011;317;48.758;9.302;2022-08-20T03:48:18;4.70;;;4.40;;
669;SDS011;317;48.758;9.302;2022-08-20T03:50:47;3.20;;;3.00;;
669;SDS011;317;48.758;9.302;2022-08-20T03:53:16;2.70;;;2.50;;
669;SDS011;317;48.758;9.302;2022-08-20T03:55:48;2.83;;;2.63;;
669;SDS011;317;48.758;9.302;2022-08-20T03:58:19;2.53;;;2.33;;
669;SDS011;317;48.758;9.302;2022-08-20T04:00:49;2.80;;;2.40;;
669;SDS011;317;48.758;9.302;2022-08-20T04:03:16;4.40;;;3.20;;
669;SDS011;317;48.758;9.302;2022-08-20T04:05:43;2.47;;;2.37;;
669;SDS011;317;48.758;9.302;2022-08-20T04:08:13;2.80;;;2.60;;
669;SDS011;317;48.758;9.302;2022-08-20T04:10:42;4.60;;;2.87;;
669;SDS011;317;48.758;9.302;2022-08-20T04:13:11;3.50;;;3.30;;
669;SDS011;317;48.758;9.302;2022-08-20T04:15:39;7.00;;;2.90;;
669;SDS011;317;48.758;9.302;2022-08-20T04:18:07;2.80;;;2.40;;
669;SDS011;317;48.758;9.302;2022-08-20T04:20:36;3.60;;;2.80;;
669;SDS011;317;48.758;9.302;2022-08-20T04:23:04;2.97;;;2.77;;
669;SDS011;317;48.758;9.302;2022-08-20T04:25:36;4.93;;;2.77;;
669;SDS011;317;48.758;9.302;2022-08-20T04:28:06;5.50;;;2.43;;
669;SDS011;317;48.758;9.302;2022-08-20T04:30:37;3.77;;;3.47;;
669;SDS011;317;48.758;9.302;2022-08-20T04:33:06;3.10;;;2.90;;
669;SDS011;317;48.758;9.302;2022-08-20T04:35:34;2.97;;;2.77;;
669;SDS011;317;48.758;9.302;2022-08-20T04:38:03;2.63;;;2.37;;
669;SDS011;317;48.758;9.302;2022-08-20T04:40:33;4.63;;;2.50;;
669;SDS011;317;48.758;9.302;2022-08-20T04:43:26;2.93;;;2.73;;
669;SDS011;317;48.758;9.302;2022-08-20T04:45:55;2.93;;;2.73;;
669;SDS011;317;48.758;9.302;2022-08-20T04:48:24;3.50;;;3.20;;
669;SDS011;317;48.758;9.302;2022-08-20T04:50:59;3.03;;;2.83;;
669;SDS011;317;48.758;9.302;2022-08-20T04:53:27;3.70;;;3.50;;
669;SDS011;317;48.758;9.302;2022-08-20T04:55:55;3.40;;;3.10;;
669;SDS011;317;48.758;9.302;2022-08-20T04:58:24;4.10;;;3.67;;
669;SDS011;317;48.758;9.302;2022-08-20T05:00:58;3.90;;;3.60;;
669;SDS011;317;48.758;9.302;2022-08-20T05:03:26;2.90;;;2.70;;
669;SDS011;317;48.758;9.302;2022-08-20T05:05:54;2.63;;;2.53;;
669;SDS011;317;48.758;9.302;2022-08-20T05:08:23;3.80;;;2.73;;
669;SDS011;317;48.758;9.302;2022-08-20T05:10:51;3.23;;;2.93;;
669;SDS011;317;48.758;9.302;2022-08-20T05:13:19;3.50;;;3.20;;
669;SDS011;317;48.758;9.302;2022-08-20T05:15:47;3.10;;;2.90;;
669;SDS011;317;48.758;9.302;2022-08-20T05:18:16;2.90;;;2.70;;
669;SDS011;317;48.758;9.302;2022-08-20T05:20:44;2.73;;;2.00;;
669;SDS011;317;48.758;9.302;2022-08-20T05:23:12;3.33;;;3.13;;
669;SDS011;317;48.758;9.302;2022-08-20T05:25:41;3.00;;;2.23;;
669;SDS011;317;48.758;9.302;2022-08-20T05:28:10;2.70;;;2.50;;
669;SDS011;317;48.758;9.302;2022-08-20T05:30:42;3.47;;;3.17;;
669;SDS011;317;48.758;9.302;2022-08-20T05:33:12;3.10;;;2.73;;
669;SDS011;317;48.758;9.302;2022-08-20T05:35:41;3.70;;;3.40;;
669;SDS011;317;48.758;9.302;2022-08-20T05:38:09;2.93;;;2.73;;
669;SDS011;317;48.758;9.302;2022-08-20T05:40:37;3.07;;;2.83;;
669;SDS011;317;48.758;9.302;2022-08-20T05:43:06;3.37;;;3.00;;
669;SDS011;317;48.758;9.302;2022-08-20T05:45:34;4.10;;;3.00;;
669;SDS011;317;48.758;9.302;2022-08-20T05:48:03;7.60;;;3.80;;
669;SDS011;317;48.758;9.302;2022-08-20T05:50:33;5.37;;;3.43;;
669;SDS011;317;48.758;9.302;2022-08-20T05:53:00;4.87;;;3.40;;
669;SDS011;317;48.758;9.302;2022-08-20T05:55:27;3.70;;;3.40;;
669;SDS011;317;48.758;9.302;2022-08-20T05:57:55;3.80;;;3.47;;
669;SDS011;317;48.758;9.302;2022-08-20T06:00:23;5.60;;;3.77;;
669;SDS011;317;48.758;9.302;2022-08-20T06:02:50;2.80;;;2.60;;
669;SDS011;317;48.758;9.302;2022-08-20T06:05:36;3.50;;;3.20;;
669;SDS011;317;48.758;9.302;2022-08-20T06:08:03;3.67;;;3.40;;
669;SDS011;317;48.758;9.302;2022-08-20T06:10:31;4.20;;;3.90;;
669;SDS011;317;48.758;9.302;2022-08-20T06:12:59;4.00;;;3.80;;
669;SDS011;317;48.758;9.302;2022-08-20T06:15:26;4.33;;;3.93;;
669;SDS011;317;48.758;9.302;2022-08-20T06:17:53;3.37;;;3.17;;
669;SDS011;317;48.758;9.302;2022-08-20T06:20:21;3.90;;;3.50;;
669;SDS011;317;48.758;9.302;2022-08-20T06:22:50;3.97;;;3.33;;
669;SDS011;317;48.758;9.302;2022-08-20T06:25:19;3.50;;;3.20;;
669;SDS011;317;48.758;9.302;2022-08-20T06:27:46;3.63;;;3.33;;
669;SDS011;317;48.758;9.302;2022-08-20T06:30:14;3.60;;;3.30;;
669;SDS011;317;48.758;9.302;2022-08-20T06:32:42;3.53;;;3.23;;
669;SDS011;317;48.758;9.302;2022-08-20T06:35:10;6.77;;;3.73;;
669;SDS011;317;48.758;9.302;2022-08-20T06:37:39;3.20;;;2.90;;
669;SDS011;317;48.758;9.302;2022-08-20T06:40:10;3.07;;;2.87;;
669;SDS011;317;48.758;9.302;2022-08-20T06:42:38;4.07;;;3.00;;
669;SDS011;317;48.758;9.302;2022-08-20T06:45:08;3.47;;;3.17;;
669;SDS011;317;48.758;9.302;2022-08-20T06:47:37;5.87;;;3.20;;
669;SDS011;317;48.758;9.302;2022-08-20T06:50:06;8.00;;;2.90;;
669;SDS011;317;48.758;9.302;2022-08-20T06:52:33;4.03;;;3.73;;
669;SDS011;317;48.758;9.302;2022-08-20T06:55:03;3.00;;;2.80;;
669;SDS011;317;48.758;9.302;2022-08-20T06:57:33;6.07;;;3.40;;
669;SDS011;317;48.758;9.302;2022-08-20T07:00:00;3.73;;;3.40;;
669;SDS011;317;48.758;9.302;2022-08-20T07:02:28;3.70;;;3.50;;
669;SDS011;317;48.758;9.302;2022-08-20T07:04:55;4.00;;;3.50;;
669;SDS011;317;48.758;9.302;2022-08-20T07:07:22;2.70;;;2.50;;
669;SDS011;317;48.758;9.302;2022-08-20T07:09:49;3.60;;;3.37;;
669;SDS011;317;48.758;9.302;2022-08-20T07:12:16;3.50;;;2.93;;
669;SDS011;317;48.758;9.302;2022-08-20T07:14:44;3.43;;;2.90;;
669;SDS011;317;48.758;9.302;2022-08-20T07:17:11;3.40;;;3.10;;
669;SDS011;317;48.758;9.302;2022-08-20T07:19:38;3.57;;;3.30;;
669;SDS011;317;48.758;9.302;2022-08-20T07:22:05;3.10;;;2.90;;
669;SDS011;317;48.758;9.302;2022-08-20T07:24:33;3.40;;;3.10;;
669;SDS011;317;48.758;9.302;2022-08-20T07:26:59;3.93;;;3.63;;
669;SDS011;317;48.758;9.302;2022-08-20T07:29:27;2.70;;;2.50;;
669;SDS011;317;48.758;9.302;2022-08-20T07:32:15;3.57;;;3.27;;
669;SDS011;317;48.758;9.302;2022-08-20T07:35:01;3.17;;;2.97;;
669;SDS011;317;48.758;9.302;2022-08-20T07:37:28;3.40;;;3.20;;
669;SDS011;317;48.758;9.302;2022-08-20T07:39:57;3.60;;;3.30;;
669;SDS011;317;48.758;9.302;2022-08-20T07:42:25;4.93;;;3.40;;
669;SDS011;317;48.758;9.302;2022-08-20T07:44:52;3.10;;;2.90;;
669;SDS011;317;48.758;9.302;2022-08-20T07:47:21;4.23;;;3.83;;
669;SDS011;317;48.758;9.302;2022-08-20T07:49:55;3.83;;;3.53;;
669;SDS011;317;48.758;9.302;2022-08-20T07:52:22;3.97;;;3.67;;
669;SDS011;317;48.758;9.302;2022-08-20T07:54:48;4.97;;;3.60;;
669;SDS011;317;48.758;9.302;2022-08-20T07:57:16;4.03;;;3.50;;
669;SDS011;317;48.758;9.302;2022-08-20T07:59:43;4.50;;;3.40;;
669;SDS011;317;48.758;9.302;2022-08-20T08:02:13;3.73;;;3.43;;
669;SDS011;317;48.758;9.302;2022-08-20T08:04:41;3.73;;;3.43;;
669;SDS011;317;48.758;9.302;2022-08-20T08:07:09;4.13;;;3.83;;
669;SDS011;317;48.758;9.302;2022-08-20T08:09:37;5.40;;;4.90;;
669;SDS011;317;48.758;9.302;2022-08-20T08:12:04;3.53;;;3.23;;
669;SDS011;317;48.758;9.302;2022-08-20T08:14:32;5.97;;;4.67;;
669;SDS011;317;48.758;9.302;2022-08-20T08:17:01;6.33;;;3.80;;
669;SDS011;317;48.758;9.302;2022-08-20T08:19:32;3.80;;;3.60;;
669;SDS011;317;48.758;9.302;2022-08-20T08:22:05;3.57;;;3.27;;
669;SDS011;317;48.758;9.302;2022-08-20T08:24:35;4.03;;;3.73;;
669;SDS011;317;48.758;9.302;2022-08-20T08:27:02;4.13;;;3.73;;
669;SDS011;317;48.758;9.302;2022-08-20T08:29:31;4.30;;;3.90;;
669;SDS011;317;48.758;9.302;2022-08-20T08:32:00;3.27;;;3.03;;
669;SDS011;317;48.758;9.302;2022-08-20T08:34:27;11.13;;;4.10;;
669;SDS011;317;48.758;9.302;2022-08-20T08:36:54;4.10;;;3.57;;
669;SDS011;317;48.758;9.302;2022-08-20T08:39:23;5.07;;;2.90;;
669;SDS011;317;48.758;9.302;2022-08-20T08:41:50;3.67;;;3.20;;
669;SDS011;317;48.758;9.302;2022-08-20T08:44:26;4.90;;;4.10;;
669;SDS011;317;48.758;9.302;2022-08-20T08:46:56;3.20;;;3.00;;
669;SDS011;317;48.758;9.302;2022-08-20T08:49:28;3.50;;;3.20;;
669;SDS011;317;48.758;9.302;2022-08-20T08:51:59;6.63;;;3.60;;
669;SDS011;317;48.758;9.302;2022-08-20T08:54:33;4.50;;;2.97;;
669;SDS011;317;48.758;9.302;2022-08-20T08:57:01;3.97;;;3.67;;
669;SDS011;317;48.758;9.302;2022-08-20T08:59:35;3.47;;;3.27;;
669;SDS011;317;48.758;9.302;2022-08-20T09:02:04;4.30;;;3.97;;
669;SDS011;317;48.758;9.302;2022-08-20T09:04:32;3.97;;;3.67;;
669;SDS011;317;48.758;9.302;2022-08-20T09:07:01;3.80;;;3.50;;
669;SDS011;317;48.758;9.302;2022-08-20T09:09:30;5.87;;;3.43;;
669;SDS011;317;48.758;9.302;2022-08-20T09:12:02;3.80;;;3.50;;
669;SDS011;317;48.758;9.302;2022-08-20T09:14:31;3.80;;;3.47;;
669;SDS011;317;48.758;9.302;2022-08-20T09:16:58;2.97;;;2.77;;
669;SDS011;317;48.758;9.302;2022-08-20T09:19:25;4.03;;;2.80;;
669;SDS011;317;48.758;9.302;2022-08-20T09:21:52;3.43;;;3.13;;
669;SDS011;317;48.758;9.302;2022-08-20T09:27:20;5.70;;;3.17;;
669;SDS011;317;48.758;9.302;2022-08-20T09:29:47;3.80;;;2.60;;
669;SDS011;317;48.758;9.302;2022-08-20T09:32:15;4.57;;;2.80;;
669;SDS011;317;48.758;9.302;2022-08-20T09:34:45;6.77;;;2.90;;
669;SDS011;317;48.758;9.302;2022-08-20T09:37:13;7.53;;;3.80;;
669;SDS011;317;48.758;9.302;2022-08-20T09:39:43;6.57;;;4.20;;
669;SDS011;317;48.758;9.302;2022-08-20T09:42:14;5.87;;;4.17;;
669;SDS011;317;48.758;9.302;2022-08-20T09:44:43;4.07;;;3.33;;
669;SDS011;317;48.758;9.302;2022-08-20T09:47:12;3.63;;;3.33;;
669;SDS011;317;48.758;9.302;2022-08-20T09:49:39;6.47;;;5.97;;
669;SDS011;317;48.758;9.302;2022-08-20T09:52:07;4.60;;;3.90;;
669;SDS011;317;48.758;9.302;2022-08-20T09:54:35;7.63;;;3.80;;
669;SDS011;317;48.758;9.302;2022-08-20T09:57:05;6.20;;;3.63;;
669;SDS011;317;48.758;9.302;2022-08-20T09:59:35;5.97;;;4.80;;
669;SDS011;317;48.758;9.302;2022-08-20T10:02:03;3.97;;;3.67;;
669;SDS011;317;48.758;9.302;2022-08-20T10:04:30;4.00;;;3.03;;
669;SDS011;317;48.758;9.302;2022-08-20T10:06:57;2.77;;;2.20;;
669;SDS011;317;48.758;9.302;2022-08-20T10:09:24;4.43;;;2.80;;
669;SDS011;317;48.758;9.302;2022-08-20T10:11:51;5.50;;;4.40;;
669;SDS011;317;48.758;9.302;2022-08-20T10:14:18;4.27;;;3.47;;
669;SDS011;317;48.758;9.302;2022-08-20T10:16:46;5.60;;;3.40;;
669;SDS011;317;48.758;9.302;2022-08-20T10:19:20;2.40;;;2.30;;
669;SDS011;317;48.758;9.302;2022-08-20T10:21:48;4.23;;;3.07;;
669;SDS011;317;48.758;9.302;2022-08-20T10:24:17;2.83;;;2.63;;
669;SDS011;317;48.758;9.302;2022-08-20T10:26:46;2.97;;;2.80;;
669;SDS011;317;48.758;9.302;2022-08-20T10:29:13;2.37;;;1.80;;
669;SDS011;317;48.758;9.302;2022-08-20T10:31:40;2.00;;;1.80;;
669;SDS011;317;48.758;9.302;2022-08-20T10:34:09;1.90;;;1.70;;
669;SDS011;317;48.758;9.302;2022-08-20T10:36:36;1.00;;;0.90;;
669;SDS011;317;48.758;9.302;2022-08-20T10:39:03;3.93;;;1.27;;
669;SDS011;317;48.758;9.302;2022-08-20T10:41:30;1.53;;;1.30;;
669;SDS011;317;48.758;9.302;2022-08-20T10:43:57;1.00;;;0.90;;
669;SDS011;317;48.758;9.302;2022-08-20T10:46:30;1.40;;;1.20;;
669;SDS011;317;48.758;9.302;2022-08-20T10:48:57;1.47;;;1.37;;
669;SDS011;317;48.758;9.302;2022-08-20T10:51:26;0.80;;;0.80;;
669;SDS011;317;48.758;9.302;2022-08-20T10:53:53;1.10;;;0.70;;
669;SDS011;317;48.758;9.302;2022-08-20T10:56:20;0.80;;;0.80;;
669;SDS011;317;48.758;9.302;2022-08-20T10:58:47;3.47;;;0.77;;
669;SDS011;317;48.758;9.302;2022-08-20T11:01:14;2.07;;;0.60;;
669;SDS011;317;48.758;9.302;2022-08-20T11:03:41;1.97;;;0.90;;
669;SDS011;317;48.758;9.302;2022-08-20T11:06:08;0.60;;;0.60;;
669;SDS011;317;48.758;9.302;2022-08-20T11:08:36;0.50;;;0.50;;
669;SDS011;317;48.758;9.302;2022-08-20T11:11:04;0.60;;;0.60;;
669;SDS011;317;48.758;9.302;2022-08-20T11:13:31;0.50;;;0.50;;
669;SDS011;317;48.758;9.302;2022-08-20T11:15:59;1.40;;;1.30;;
669;SDS011;317;48.758;9.302;2022-08-20T11:18:29;0.70;;;0.70;;
669;SDS011;317;48.758;9.302;2022-08-20T11:20:57;5.47;;;1.20;;
669;SDS011;317;48.758;9.302;2022-08-20T11:23:24;0.93;;;0.70;;
669;SDS011;317;48.758;9.302;2022-08-20T11:25:53;0.90;;;0.90;;
669;SDS011;317;48.758;9.302;2022-08-20T11:28:20;1.10;;;1.00;;
669;SDS011;317;48.758;9.302;2022-08-20T11:30:47;0.93;;;0.93;;
669;SDS011;317;48.758;9.302;2022-08-20T11:33:15;1.00;;;0.90;;
669;SDS011;317;48.758;9.302;2022-08-20T11:35:44;0.80;;;0.80;;
669;SDS011;317;48.758;9.302;2022-08-20T11:38:11;0.50;;;0.50;;
669;SDS011;317;48.758;9.302;2022-08-20T11:40:38;0.60;;;0.60;;
669;SDS011;317;48.758;9.302;2022-08-20T11:43:06;0.63;;;0.63;;
669;SDS011;317;48.758;9.302;2022-08-20T11:45:35;0.77;;;0.77;;
669;SDS011;317;48.758;9.302;2022-08-20T11:48:02;0.80;;;0.63;;
669;SDS011;317;48.758;9.302;2022-08-20T11:50:29;1.50;;;0.50;;
669;SDS011;317;48.758;9.302;2022-08-20T11:52:56;0.83;;;0.60;;
669;SDS011;317;48.758;9.302;2022-08-20T11:55:23;0.80;;;0.80;;
669;SDS011;317;48.758;9.302;2022-08-20T11:57:50;2.10;;;0.60;;
669;SDS011;317;48.758;9.302;2022-08-20T12:00:19;1.57;;;1.07;;
669;SDS011;317;48.758;9.302;2022-08-20T12:02:55;0.80;;;0.80;;
669;SDS011;317;48.758;9.302;2022-08-20T12:05:22;0.90;;;0.90;;
669;SDS011;317;48.758;9.302;2022-08-20T12:07:51;0.70;;;0.70;;
669;SDS011;317;48.758;9.302;2022-08-20T12:10:17;1.27;;;0.90;;
669;SDS011;317;48.758;9.302;2022-08-20T12:12:51;1.03;;;0.60;;
669;SDS011;317;48.758;9.302;2022-08-20T12:15:20;0.50;;;0.50;;
669;SDS011;317;48.758;9.302;2022-08-20T12:17:49;0.93;;;0.83;;
669;SDS011;317;48.758;9.302;2022-08-20T12:20:17;0.60;;;0.50;;
669;SDS011;317;48.758;9.302;2022-08-20T12:22:44;0.67;;;0.60;;
669;SDS011;317;48.758;9.302;2022-08-20T12:25:13;1.00;;;0.50;;
669;SDS011;317;48.758;9.302;2022-08-20T12:27:40;0.67;;;0.63;;
669;SDS011;317;48.758;9.302;2022-08-20T12:30:09;1.00;;;0.70;;
669;SDS011;317;48.758;9.302;2022-08-20T12:32:39;0.43;;;0.43;;
669;SDS011;317;48.758;9.302;2022-08-20T12:35:07;1.00;;;1.00;;
669;SDS011;317;48.758;9.302;2022-08-20T12:37:36;0.50;;;0.50;;
669;SDS011;317;48.758;9.302;2022-08-20T12:40:05;0.87;;;0.80;;
669;SDS011;317;48.758;9.302;2022-08-20T12:42:35;0.43;;;0.43;;
669;SDS011;317;48.758;9.302;2022-08-20T12:45:02;0.60;;;0.50;;
669;SDS011;317;48.758;9.302;2022-08-20T12:47:30;0.93;;;0.77;;
669;SDS011;317;48.758;9.302;2022-08-20T12:50:02;0.70;;;0.70;;
669;SDS011;317;48.758;9.302;2022-08-20T12:52:31;0.97;;;0.50;;
669;SDS011;317;48.758;9.302;2022-08-20T12:55:00;0.50;;;0.50;;
669;SDS011;317;48.758;9.302;2022-08-20T12:57:29;1.97;;;0.60;;
669;SDS011;317;48.758;9.302;2022-08-20T12:59:58;0.63;;;0.63;;
669;SDS011;317;48.758;9.302;2022-08-20T13:02:26;1.13;;;0.80;;
669;SDS011;317;48.758;9.302;2022-08-20T13:04:54;0.60;;;0.60;;
669;SDS011;317;48.758;9.302;2022-08-20T13:07:22;1.03;;;0.80;;
669;SDS011;317;48.758;9.302;2022-08-20T13:09:49;2.20;;;1.40;;
669;SDS011;317;48.758;9.302;2022-08-20T13:12:16;1.10;;;1.00;;
669;SDS011;317;48.758;9.302;2022-08-20T13:14:44;0.93;;;0.83;;
669;SDS011;317;48.758;9.302;2022-08-20T13:17:11;1.20;;;1.20;;
669;SDS011;317;48.758;9.302;2022-08-20T13:19:43;1.13;;;0.70;;
669;SDS011;317;48.758;9.302;2022-08-20T13:22:13;0.70;;;0.70;;
669;SDS011;317;48.758;9.302;2022-08-20T13:24:42;1.70;;;1.20;;
669;SDS011;317;48.758;9.302;2022-08-20T13:27:14;1.10;;;1.00;;
669;SDS011;317;48.758;9.302;2022-08-20T13:30:12;1.23;;;0.80;;
669;SDS011;317;48.758;9.302;2022-08-20T13:32:43;4.40;;;1.60;;
669;SDS011;317;48.758;9.302;2022-08-20T13:35:12;4.53;;;1.47;;
669;SDS011;317;48.758;9.302;2022-08-20T13:37:40;4.70;;;1.53;;
669;SDS011;317;48.758;9.302;2022-08-20T13:40:09;6.10;;;2.97;;
669;SDS011;317;48.758;9.302;2022-08-20T13:42:37;5.43;;;1.40;;
669;SDS011;317;48.758;9.302;2022-08-20T13:45:05;5.83;;;2.00;;
669;SDS011;317;48.758;9.302;2022-08-20T13:47:34;21.50;;;4.37;;
669;SDS011;317;48.758;9.302;2022-08-20T13:50:03;29.93;;;5.90;;
669;SDS011;317;48.758;9.302;2022-08-20T13:52:32;18.03;;;3.10;;
669;SDS011;317;48.758;9.302;2022-08-20T13:54:59;30.03;;;5.10;;
669;SDS011;317;48.758;9.302;2022-08-20T13:57:27;3.20;;;1.70;;
669;SDS011;317;48.758;9.302;2022-08-20T13:59:55;2.70;;;1.63;;
669;SDS011;317;48.758;9.302;2022-08-20T14:02:23;3.20;;;1.40;;
669;SDS011;317;48.758;9.302;2022-08-20T14:04:50;1.80;;;1.70;;
669;SDS011;317;48.758;9.302;2022-08-20T14:07:18;3.77;;;1.73;;
669;SDS011;317;48.758;9.302;2022-08-20T14:09:47;2.00;;;1.60;;
669;SDS011;317;48.758;9.302;2022-08-20T14:12:15;3.07;;;1.53;;
669;SDS011;317;48.758;9.302;2022-08-20T14:14:44;2.10;;;1.27;;
669;SDS011;317;48.758;9.302;2022-08-20T14:17:13;2.50;;;1.60;;
669;SDS011;317;48.758;9.302;2022-08-20T14:19:41;1.63;;;1.03;;
669;SDS011;317;48.758;9.302;2022-08-20T14:22:08;1.93;;;0.90;;
669;SDS011;317;48.758;9.302;2022-08-20T14:24:35;1.90;;;1.10;;
669;SDS011;317;48.758;9.302;2022-08-20T14:27:02;1.90;;;1.23;;
669;SDS011;317;48.758;9.302;2022-08-20T14:29:31;1.40;;;1.20;;
669;SDS011;317;48.758;9.302;2022-08-20T14:32:00;3.80;;;2.10;;
669;SDS011;317;48.758;9.302;2022-08-20T14:34:28;2.60;;;1.80;;
669;SDS011;317;48.758;9.302;2022-08-20T14:36:55;2.00;;;1.90;;
669;SDS011;317;48.758;9.302;2022-08-20T14:39:22;3.13;;;1.30;;
669;SDS011;317;48.758;9.302;2022-08-20T14:41:50;1.60;;;1.50;;
669;SDS011;317;48.758;9.302;2022-08-20T14:44:17;1.93;;;1.73;;
669;SDS011;317;48.758;9.302;2022-08-20T14:46:44;1.60;;;1.50;;
669;SDS011;317;48.758;9.302;2022-08-20T14:49:12;2.17;;;1.80;;
669;SDS011;317;48.758;9.302;2022-08-20T14:51:39;1.40;;;1.30;;
669;SDS011;317;48.758;9.302;2022-08-20T14:54:07;1.73;;;1.20;;
669;SDS011;317;48.758;9.302;2022-08-20T14:56:35;1.03;;;0.70;;
669;SDS011;317;48.758;9.302;2022-08-20T14:59:01;1.10;;;1.00;;
669;SDS011;317;48.758;9.302;2022-08-20T15:01:29;1.07;;;1.00;;
669;SDS011;317;48.758;9.302;2022-08-20T15:03:58;2.70;;;1.30;;
669;SDS011;317;48.758;9.302;2022-08-20T15:06:27;3.63;;;1.40;;
669;SDS011;317;48.758;9.302;2022-08-20T15:08:54;1.57;;;1.37;;
669;SDS011;317;48.758;9.302;2022-08-20T15:11:21;1.83;;;1.60;;
669;SDS011;317;48.758;9.302;2022-08-20T15:13:47;1.63;;;1.10;;
669;SDS011;317;48.758;9.302;2022-08-20T15:16:14;1.33;;;1.17;;
669;SDS011;317;48.758;9.302;2022-08-20T15:18:41;2.60;;;1.27;;
669;SDS011;317;48.758;9.302;2022-08-20T15:21:09;1.33;;;1.00;;
669;SDS011;317;48.758;9.302;2022-08-20T15:23:37;1.43;;;1.20;;
669;SDS011;317;48.758;9.302;2022-08-20T15:26:04;2.40;;;1.43;;
669;SDS011;317;48.758;9.302;2022-08-20T15:28:33;1.30;;;1.20;;
669;SDS011;317;48.758;9.302;2022-08-20T15:31:00;1.47;;;1.37;;
669;SDS011;317;48.758;9.302;2022-08-20T15:33:26;1.60;;;1.33;;
669;SDS011;317;48.758;9.302;2022-08-20T15:35:53;2.47;;;1.07;;
669;SDS011;317;48.758;9.302;2022-08-20T15:38:21;1.20;;;1.10;;
669;SDS011;317;48.758;9.302;2022-08-20T15:40:52;1.03;;;1.00;;
669;SDS011;317;48.758;9.302;2022-08-20T15:43:19;1.40;;;1.30;;
669;SDS011;317;48.758;9.302;2022-08-20T15:45:49;1.50;;;1.03;;
669;SDS011;317;48.758;9.302;2022-08-20T15:48:16;1.07;;;0.73;;
669;SDS011;317;48.758;9.302;2022-08-20T15:51:04;0.80;;;0.80;;
669;SDS011;317;48.758;9.302;2022-08-20T15:53:51;0.93;;;0.93;;
669;SDS011;317;48.758;9.302;2022-08-20T15:59:32;1.10;;;1.00;;
669;SDS011;317;48.758;9.302;2022-08-20T16:02:35;2.10;;;1.30;;